Desert Hot Springs, CA (92241)

4:00 AM PDT on September 01, 2015 (GMT -0700)
KCASKYVA3 | | Change Station
CLOSE
Current Station
Personal Weather Station
Location: Sky Valley, CA
Elevation: 1056 ft
Nearby Weather Stations

Elev 1056 ft 33.89 °N, 116.37 °W | Updated 20 seconds ago

Clear
Clear
78.7 °F
Feels Like 78 °F
N
10.0
Wind Variable Wind from WNW
Gusts 10.0 mph

Today
High -- | Low -- °F
--% Chance of Precip.
Yesterday
High -- | Low -- °F
Precip. -- in
6:19 AM 7:11 PM
Waning Gibbous, 89% visible
Pressure 29.78 in
Visibility 10.0 miles
Clouds Clear
Heat Index 78 °F
Dew Point 43 °F
Humidity 28%
Rainfall 0.00 in
Snow Depth Not available.
UV 0 out of 12
Pollen 6.20 out of 12
Air Quality Not available.
Flu Activity Not available.
METAR KPSP 011053Z AUTO 22004KT 10SM CLR 26/08 A2979 RMK AO2 SLP083 T02610083 TSNO
Pressure 29.78 in
Visibility 10.0 miles
Clouds Clear
Heat Index 78 °F
Dew Point 43 °F
Humidity 28%
Rainfall 0.00 in
Snow Depth Not available.
UV 0 out of 12
Pollen 6.20 out of 12
Air Quality Not available.
Flu Activity Not available.
METAR KPSP 011053Z AUTO 22004KT 10SM CLR 26/08 A2979 RMK AO2 SLP083 T02610083 TSNO

10-Day Weather Forecast

×

Almanac

Astronomy

Sep. 01, 2015 Rise Set
Actual Time
Civil Twilight
Nautical Twilight
Astronomical Twilight
Moon
Length of Visible Light
Length of Day
Tomorrow will be .
, % of the Moon is Illuminated

Today's Extremes

State Highs State Lows

Community

WunderPhotos

Upload Photos

1,851,501 photos uploaded!

WunderBlogs® & News

Nearby

Air Quality

  Air Quality AQ Index Pollutant
Not available.

Snow Depth

Station Depth Elevation

Earthquake Activity

City Distance Mag. Time & Date
Minimum magnitude displayed is 2.5.

Coastal Water Temperatures

Place Temperature

Stations

Nearby Weather Stations

Station Location Temp. Windchill Dew Point Humidity Wind Precip. Elev Updated Type